createdAt,value
2023-03-30T00:00:19.995Z,13.91
2023-03-30T00:01:19.940Z,13.92
2023-03-30T00:02:19.934Z,13.91
2023-03-30T00:03:20.159Z,13.74
2023-03-30T00:04:20.142Z,13.73
2023-03-30T00:05:19.944Z,13.79
2023-03-30T00:06:19.899Z,13.83
2023-03-30T00:07:19.871Z,13.87
2023-03-30T00:08:19.846Z,13.88
2023-03-30T00:09:19.839Z,13.81
2023-03-30T00:10:19.843Z,13.77
2023-03-30T00:11:19.885Z,13.83
2023-03-30T00:12:19.815Z,13.84
2023-03-30T00:13:19.807Z,13.81
2023-03-30T00:14:19.822Z,13.80
2023-03-30T00:15:19.790Z,13.81
2023-03-30T00:16:19.838Z,13.89
2023-03-30T00:17:19.755Z,13.80
2023-03-30T00:18:19.742Z,13.91
2023-03-30T00:19:19.829Z,13.88
2023-03-30T00:20:19.764Z,13.91
2023-03-30T00:21:19.753Z,13.74
2023-03-30T00:22:19.706Z,13.81
2023-03-30T00:23:19.737Z,13.95
2023-03-30T00:24:19.669Z,13.94
2023-03-30T00:25:19.680Z,14.06
2023-03-30T00:26:19.672Z,14.14
2023-03-30T00:27:19.635Z,14.10
2023-03-30T00:28:19.634Z,14.10
2023-03-30T00:29:19.609Z,14.01
2023-03-30T00:30:19.616Z,14.24
2023-03-30T00:31:19.685Z,14.16
2023-03-30T00:32:19.574Z,14.21
2023-03-30T00:33:21.944Z,14.27
2023-03-30T00:34:20.551Z,14.31
2023-03-30T00:35:19.591Z,14.29
2023-03-30T00:36:19.592Z,14.19
2023-03-30T00:37:19.531Z,14.20
2023-03-30T00:38:19.511Z,14.27
2023-03-30T00:39:19.520Z,14.25
2023-03-30T00:40:19.492Z,14.31
2023-03-30T00:41:19.483Z,14.34
2023-03-30T00:42:19.461Z,14.29
2023-03-30T00:43:19.467Z,14.27
2023-03-30T00:44:19.438Z,14.27
2023-03-30T00:45:19.472Z,14.42
2023-03-30T00:46:19.458Z,14.39
2023-03-30T00:47:20.168Z,14.39
2023-03-30T00:48:19.395Z,14.39
2023-03-30T00:49:19.387Z,14.34
2023-03-30T00:50:19.403Z,14.39
2023-03-30T00:51:19.406Z,14.38
2023-03-30T00:52:19.400Z,14.35
2023-03-30T00:53:19.354Z,14.49
2023-03-30T00:54:19.337Z,14.49
2023-03-30T00:55:19.338Z,14.54
2023-03-30T00:56:19.315Z,14.47
2023-03-30T00:57:19.353Z,14.61
2023-03-30T00:58:19.295Z,14.56
2023-03-30T00:59:19.287Z,14.60
2023-03-30T01:00:19.295Z,14.54
2023-03-30T01:01:19.334Z,14.68
2023-03-30T01:02:19.346Z,14.64
2023-03-30T01:03:19.327Z,14.72
2023-03-30T01:04:19.210Z,14.68
2023-03-30T01:05:19.224Z,14.72
2023-03-30T01:06:19.215Z,14.72
2023-03-30T01:07:19.228Z,14.75
2023-03-30T01:08:19.179Z,14.74
2023-03-30T01:09:19.177Z,14.71
2023-03-30T01:10:19.148Z,14.71
2023-03-30T01:11:19.188Z,14.87
2023-03-30T01:12:19.147Z,14.86
2023-03-30T01:13:19.114Z,14.80
2023-03-30T01:14:19.142Z,14.71
2023-03-30T01:15:19.107Z,14.83
2023-03-30T01:16:19.318Z,14.75
2023-03-30T01:17:19.074Z,14.71
2023-03-30T01:18:19.069Z,14.75
2023-03-30T01:19:19.077Z,14.62
2023-03-30T01:20:19.056Z,14.75
2023-03-30T01:21:19.059Z,14.71
2023-03-30T01:22:19.041Z,14.62
2023-03-30T01:23:19.046Z,14.81
2023-03-30T01:24:19.011Z,14.64
2023-03-30T01:25:19.002Z,14.62
2023-03-30T01:26:18.967Z,14.68
2023-03-30T01:27:18.971Z,14.64
2023-03-30T01:28:18.944Z,14.57
2023-03-30T01:29:18.935Z,14.53
2023-03-30T01:30:18.920Z,14.54
2023-03-30T01:31:18.953Z,14.54
2023-03-30T01:32:18.915Z,14.44
2023-03-30T01:33:18.923Z,14.54
2023-03-30T01:34:18.890Z,14.49
2023-03-30T01:35:18.889Z,14.50
2023-03-30T01:36:18.918Z,14.54
2023-03-30T01:37:18.854Z,14.44
2023-03-30T01:38:18.832Z,14.52
2023-03-30T01:39:18.857Z,14.47
2023-03-30T01:40:18.820Z,14.56
2023-03-30T01:41:18.839Z,14.61
2023-03-30T01:42:18.797Z,14.60
2023-03-30T01:43:18.792Z,14.68
2023-03-30T01:44:18.791Z,14.54
2023-03-30T01:45:18.758Z,14.54
2023-03-30T01:46:18.766Z,14.64
2023-03-30T01:47:18.756Z,14.68
2023-03-30T01:48:18.731Z,14.60
2023-03-30T01:49:18.745Z,14.65
2023-03-30T01:50:18.711Z,14.57
2023-03-30T01:51:18.688Z,14.64
2023-03-30T01:52:18.682Z,14.72
2023-03-30T01:53:18.663Z,14.78
2023-03-30T01:54:18.690Z,14.81
2023-03-30T01:55:18.675Z,14.78
2023-03-30T01:56:18.643Z,14.90
2023-03-30T01:57:18.663Z,14.84
2023-03-30T01:58:18.625Z,14.93
2023-03-30T01:59:18.642Z,15.01
2023-03-30T02:00:18.588Z,14.88
2023-03-30T02:01:18.611Z,15.06
2023-03-30T02:02:18.668Z,15.17
2023-03-30T02:03:18.597Z,15.30
2023-03-30T02:04:18.549Z,15.33
2023-03-30T02:05:18.548Z,15.41
2023-03-30T02:06:18.540Z,15.41
2023-03-30T02:07:18.519Z,15.39
2023-03-30T02:08:18.642Z,15.42
2023-03-30T02:09:18.487Z,15.43
2023-03-30T02:10:18.491Z,15.49
2023-03-30T02:11:18.501Z,15.52
2023-03-30T02:12:18.453Z,15.57
2023-03-30T02:13:18.457Z,15.70
2023-03-30T02:14:18.426Z,15.59
2023-03-30T02:15:18.444Z,15.59
2023-03-30T02:16:18.461Z,15.74
2023-03-30T02:17:18.422Z,15.75
2023-03-30T02:18:18.553Z,15.99
2023-03-30T02:19:18.408Z,15.94
2023-03-30T02:20:18.372Z,15.96
2023-03-30T02:21:18.374Z,15.99
2023-03-30T02:22:18.339Z,16.04
2023-03-30T02:23:18.359Z,16.14
2023-03-30T02:24:18.345Z,16.06
2023-03-30T02:25:18.321Z,16.07
2023-03-30T02:26:18.321Z,16.03
2023-03-30T02:27:18.357Z,16.20
2023-03-30T02:28:18.297Z,16.06
2023-03-30T02:29:18.260Z,16.18
2023-03-30T02:30:18.276Z,16.16
2023-03-30T02:31:18.276Z,16.18
2023-03-30T02:32:18.277Z,16.22
2023-03-30T02:33:18.280Z,16.07
2023-03-30T02:34:18.208Z,16.07
2023-03-30T02:35:18.197Z,16.15
2023-03-30T02:36:18.231Z,16.07
2023-03-30T02:37:18.180Z,16.07
2023-03-30T02:38:18.205Z,16.12
2023-03-30T02:39:18.149Z,15.96
2023-03-30T02:40:18.172Z,15.94
2023-03-30T02:41:18.128Z,15.97
2023-03-30T02:42:18.141Z,15.89
2023-03-30T02:43:18.188Z,15.92
2023-03-30T02:44:18.099Z,16.04
2023-03-30T02:45:18.122Z,15.96
2023-03-30T02:46:18.124Z,15.94
2023-03-30T02:47:18.062Z,15.97
2023-03-30T02:48:18.112Z,15.97
2023-03-30T02:49:18.037Z,16.00
2023-03-30T02:50:18.047Z,16.01
2023-03-30T02:51:18.028Z,16.15
2023-03-30T02:52:18.009Z,16.12
2023-03-30T02:53:18.011Z,16.04
2023-03-30T02:54:18.014Z,16.12
2023-03-30T02:55:17.975Z,16.16
2023-03-30T02:56:17.970Z,16.11
2023-03-30T02:57:17.962Z,16.04
2023-03-30T02:58:17.974Z,16.12
2023-03-30T02:59:17.980Z,16.03
2023-03-30T03:00:17.932Z,16.16
2023-03-30T03:01:18.001Z,16.14
2023-03-30T03:02:17.979Z,16.26
2023-03-30T03:03:17.994Z,16.15
2023-03-30T03:04:17.932Z,16.25
2023-03-30T03:05:17.890Z,16.20
2023-03-30T03:06:17.853Z,16.11
2023-03-30T03:07:17.840Z,16.22
2023-03-30T03:08:17.850Z,16.16
2023-03-30T03:09:17.830Z,16.18
2023-03-30T03:10:17.811Z,16.16
2023-03-30T03:11:17.810Z,16.03
2023-03-30T03:12:17.799Z,16.04
2023-03-30T03:13:17.786Z,16.06
2023-03-30T03:14:17.800Z,16.03
2023-03-30T03:15:17.777Z,16.06
2023-03-30T03:16:17.760Z,16.03
2023-03-30T03:17:17.779Z,16.14
2023-03-30T03:18:17.739Z,16.06
2023-03-30T03:19:17.729Z,16.04
2023-03-30T03:20:17.722Z,16.09
2023-03-30T03:21:17.696Z,16.01
2023-03-30T03:22:17.692Z,16.01
2023-03-30T03:23:17.677Z,16.18
2023-03-30T03:24:17.685Z,16.06
2023-03-30T03:25:17.668Z,16.07
2023-03-30T03:26:17.634Z,16.12
2023-03-30T03:27:17.617Z,16.07
2023-03-30T03:28:17.644Z,16.06
2023-03-30T03:29:17.640Z,16.14
2023-03-30T03:30:17.602Z,16.06
2023-03-30T03:31:17.687Z,16.20
2023-03-30T03:32:17.568Z,16.11
2023-03-30T03:33:17.563Z,16.22
2023-03-30T03:34:17.564Z,16.23
2023-03-30T03:35:17.550Z,16.25
2023-03-30T03:36:17.588Z,16.12
2023-03-30T03:37:17.518Z,16.16
2023-03-30T03:38:17.525Z,16.16
2023-03-30T03:39:17.481Z,16.12
2023-03-30T03:40:17.497Z,16.09
2023-03-30T03:41:17.466Z,16.20
2023-03-30T03:42:17.462Z,16.06
2023-03-30T03:43:17.464Z,16.01
2023-03-30T03:44:17.451Z,15.94
2023-03-30T03:45:17.443Z,16.01
2023-03-30T03:46:17.452Z,15.94
2023-03-30T03:47:17.453Z,15.94
2023-03-30T03:48:17.399Z,15.81
2023-03-30T03:49:17.376Z,15.82
2023-03-30T03:50:17.381Z,15.76
2023-03-30T03:51:17.371Z,15.68
2023-03-30T03:52:17.352Z,15.68
2023-03-30T03:53:17.346Z,15.72
2023-03-30T03:54:17.335Z,15.63
2023-03-30T03:55:17.319Z,15.66
2023-03-30T03:56:17.306Z,15.52
2023-03-30T03:57:17.386Z,15.48
2023-03-30T03:58:17.298Z,15.42
2023-03-30T03:59:17.276Z,15.38
2023-03-30T04:00:17.374Z,15.43
2023-03-30T04:01:17.257Z,15.31
2023-03-30T04:02:17.271Z,15.21
2023-03-30T04:03:17.362Z,15.26
2023-03-30T04:04:17.265Z,15.24
2023-03-30T04:05:17.198Z,15.08
2023-03-30T04:06:17.202Z,15.09
2023-03-30T04:07:17.200Z,15.12
2023-03-30T04:08:17.210Z,15.24
2023-03-30T04:09:17.150Z,15.15
2023-03-30T04:10:17.158Z,15.21
2023-03-30T04:11:17.147Z,15.20
2023-03-30T04:12:17.130Z,15.21
2023-03-30T04:13:17.230Z,15.26
2023-03-30T04:14:17.122Z,15.24
2023-03-30T04:15:17.102Z,15.33
2023-03-30T04:16:17.124Z,15.30
2023-03-30T04:17:17.074Z,15.26
2023-03-30T04:18:17.141Z,15.21
2023-03-30T04:19:17.129Z,15.21
2023-03-30T04:20:17.054Z,15.21
2023-03-30T04:21:17.034Z,15.24
2023-03-30T04:22:17.032Z,15.30
2023-03-30T04:23:17.014Z,15.24
2023-03-30T04:24:17.021Z,15.27
2023-03-30T04:25:16.974Z,15.35
2023-03-30T04:26:16.981Z,15.21
2023-03-30T04:27:17.064Z,15.24
2023-03-30T04:28:16.974Z,15.43
2023-03-30T04:29:16.930Z,15.28
2023-03-30T04:30:16.938Z,15.30
2023-03-30T04:31:16.987Z,15.35
2023-03-30T04:32:16.916Z,15.39
2023-03-30T04:33:16.893Z,15.45
2023-03-30T04:34:16.906Z,15.39
2023-03-30T04:35:16.904Z,15.36
2023-03-30T04:36:16.891Z,15.41
2023-03-30T04:37:16.877Z,15.51
2023-03-30T04:38:16.836Z,15.45
2023-03-30T04:39:16.851Z,15.51
2023-03-30T04:40:16.848Z,15.48
2023-03-30T04:41:16.816Z,15.42
2023-03-30T04:42:16.796Z,15.46
2023-03-30T04:43:16.790Z,15.45
2023-03-30T04:44:16.812Z,15.45
2023-03-30T04:45:16.767Z,15.54
2023-03-30T04:46:17.352Z,15.57
2023-03-30T04:47:16.749Z,15.51
2023-03-30T04:48:16.752Z,15.48
2023-03-30T04:49:16.717Z,15.46
2023-03-30T04:50:16.720Z,15.51
2023-03-30T04:51:16.731Z,15.59
2023-03-30T04:52:16.700Z,15.56
2023-03-30T04:53:16.702Z,15.57
2023-03-30T04:54:16.681Z,15.64
2023-03-30T04:55:16.701Z,15.67
2023-03-30T04:56:16.643Z,15.64
2023-03-30T04:57:16.707Z,15.68
2023-03-30T04:58:16.622Z,15.70
2023-03-30T04:59:16.634Z,15.63
2023-03-30T05:00:16.640Z,15.64
2023-03-30T05:01:16.648Z,15.67
2023-03-30T05:02:16.637Z,15.60
2023-03-30T05:03:16.763Z,15.67
2023-03-30T05:04:16.584Z,15.64
2023-03-30T05:05:16.556Z,15.60
2023-03-30T05:06:16.546Z,15.67
2023-03-30T05:07:16.555Z,15.66
2023-03-30T05:08:16.521Z,15.61
2023-03-30T05:09:16.493Z,15.60
2023-03-30T05:10:16.529Z,15.60
2023-03-30T05:11:16.500Z,15.64
2023-03-30T05:12:16.471Z,15.68
2023-03-30T05:13:16.460Z,15.63
2023-03-30T05:14:16.457Z,15.67
2023-03-30T05:15:16.483Z,15.64
2023-03-30T05:16:16.464Z,15.66
2023-03-30T05:17:16.475Z,15.60
2023-03-30T05:18:16.503Z,15.63
2023-03-30T05:19:16.407Z,15.59
2023-03-30T05:20:16.395Z,15.67
2023-03-30T05:21:16.366Z,15.60
2023-03-30T05:22:16.358Z,15.72
2023-03-30T05:23:16.371Z,15.64
2023-03-30T05:24:16.382Z,15.63
2023-03-30T05:25:16.329Z,15.64
2023-03-30T05:26:16.404Z,15.67
2023-03-30T05:27:16.322Z,15.74
2023-03-30T05:28:16.300Z,15.56
2023-03-30T05:29:16.286Z,15.70
2023-03-30T05:30:16.278Z,15.68
2023-03-30T05:31:16.268Z,15.75
2023-03-30T05:32:16.296Z,15.68
2023-03-30T05:33:16.244Z,15.76
2023-03-30T05:34:16.238Z,15.67
2023-03-30T05:35:16.209Z,15.67
2023-03-30T05:36:16.278Z,15.70
2023-03-30T05:37:16.182Z,15.82
2023-03-30T05:38:16.196Z,15.74
2023-03-30T05:39:16.224Z,15.72
2023-03-30T05:40:16.188Z,15.74
2023-03-30T05:41:16.154Z,15.81
2023-03-30T05:42:16.146Z,15.84
2023-03-30T05:43:16.168Z,15.93
2023-03-30T05:44:16.147Z,15.79
2023-03-30T05:45:16.098Z,15.81
2023-03-30T05:46:16.120Z,15.82
2023-03-30T05:47:16.076Z,15.85
2023-03-30T05:48:16.068Z,15.86
2023-03-30T05:49:16.079Z,15.93
2023-03-30T05:50:16.060Z,15.93
2023-03-30T05:51:16.054Z,15.97
2023-03-30T05:52:16.032Z,15.99
2023-03-30T05:53:16.008Z,15.99
2023-03-30T05:54:16.025Z,15.97
2023-03-30T05:55:16.008Z,15.97
2023-03-30T05:56:15.984Z,15.96
2023-03-30T05:57:16.042Z,15.89
2023-03-30T05:58:15.968Z,15.89
2023-03-30T05:59:15.938Z,15.86
2023-03-30T06:00:15.960Z,15.81
2023-03-30T06:01:15.919Z,15.86
2023-03-30T06:02:15.909Z,15.86
2023-03-30T06:03:16.000Z,15.85
2023-03-30T06:04:16.092Z,15.88
2023-03-30T06:05:15.880Z,15.86
2023-03-30T06:06:15.877Z,15.88
2023-03-30T06:07:15.861Z,15.96
2023-03-30T06:08:15.844Z,15.76
2023-03-30T06:09:15.830Z,15.88
2023-03-30T06:10:15.846Z,15.82
2023-03-30T06:11:15.844Z,15.85
2023-03-30T06:12:15.844Z,15.89
2023-03-30T06:13:15.791Z,15.92
2023-03-30T06:14:15.775Z,15.81
2023-03-30T06:15:15.762Z,15.84
2023-03-30T06:16:15.838Z,15.92
2023-03-30T06:17:15.759Z,15.89
2023-03-30T06:18:15.875Z,15.84
2023-03-30T06:19:15.725Z,15.88
2023-03-30T06:20:15.708Z,15.88
2023-03-30T06:21:15.710Z,15.86
2023-03-30T06:22:15.732Z,15.85
2023-03-30T06:23:15.690Z,15.85
2023-03-30T06:24:15.675Z,15.82
2023-03-30T06:25:15.662Z,15.82
2023-03-30T06:26:15.661Z,15.81
2023-03-30T06:27:15.658Z,15.76
2023-03-30T06:28:15.643Z,15.79
2023-03-30T06:29:15.625Z,15.78
2023-03-30T06:30:15.609Z,15.75
2023-03-30T06:31:15.646Z,15.76
2023-03-30T06:32:15.613Z,15.78
2023-03-30T06:33:15.579Z,15.72
2023-03-30T06:34:15.554Z,15.75
2023-03-30T06:35:15.560Z,15.81
2023-03-30T06:36:15.565Z,15.81
2023-03-30T06:37:15.552Z,15.82
2023-03-30T06:38:15.522Z,15.81
2023-03-30T06:39:15.519Z,15.84
2023-03-30T06:40:15.527Z,15.84
2023-03-30T06:41:15.484Z,15.78
2023-03-30T06:42:15.459Z,15.72
2023-03-30T06:43:15.541Z,15.76
2023-03-30T06:44:15.455Z,15.78
2023-03-30T06:45:15.445Z,15.81
2023-03-30T06:46:15.436Z,15.82
2023-03-30T06:47:15.614Z,15.70
2023-03-30T06:48:15.400Z,15.84
2023-03-30T06:49:15.417Z,15.79
2023-03-30T06:50:15.384Z,15.78
2023-03-30T06:51:15.376Z,15.74
2023-03-30T06:52:15.380Z,15.79
2023-03-30T06:53:15.355Z,15.74
2023-03-30T06:54:15.390Z,15.76
2023-03-30T06:55:15.323Z,15.75
2023-03-30T06:56:15.320Z,15.81
2023-03-30T06:57:15.341Z,15.78
2023-03-30T06:58:15.281Z,15.78
2023-03-30T06:59:15.335Z,15.88
2023-03-30T07:00:15.415Z,15.88
2023-03-30T07:01:15.299Z,15.88
2023-03-30T07:02:15.262Z,15.89
2023-03-30T07:03:15.232Z,15.93
2023-03-30T07:04:15.277Z,15.86
2023-03-30T07:05:15.228Z,15.93
2023-03-30T07:06:15.213Z,15.82
2023-03-30T07:07:15.219Z,15.85
2023-03-30T07:08:15.190Z,15.82
2023-03-30T07:09:15.198Z,15.92
2023-03-30T07:10:15.169Z,15.82
2023-03-30T07:11:15.159Z,15.81
2023-03-30T07:12:15.146Z,15.81
2023-03-30T07:13:15.135Z,15.88
2023-03-30T07:14:15.145Z,15.85
2023-03-30T07:15:15.126Z,15.97
2023-03-30T07:16:15.136Z,16.06
2023-03-30T07:17:15.220Z,16.00
2023-03-30T07:18:15.161Z,16.09
2023-03-30T07:19:15.072Z,16.16
2023-03-30T07:20:15.064Z,16.16
2023-03-30T07:21:15.049Z,16.23
2023-03-30T07:22:15.097Z,16.30
2023-03-30T07:23:15.030Z,16.34
2023-03-30T07:24:15.028Z,16.31
2023-03-30T07:25:15.389Z,16.44
2023-03-30T07:26:14.974Z,16.49
2023-03-30T07:27:15.252Z,16.67
2023-03-30T07:28:14.953Z,16.58
2023-03-30T07:29:14.950Z,16.75
2023-03-30T07:30:21.703Z,16.77
2023-03-30T07:31:16.004Z,16.71
2023-03-30T07:32:14.965Z,16.83
2023-03-30T07:33:15.003Z,16.95
2023-03-30T07:34:14.897Z,16.96
2023-03-30T07:35:14.909Z,16.85
2023-03-30T07:36:14.901Z,17.03
2023-03-30T07:37:20.341Z,16.96
2023-03-30T07:38:15.853Z,17.00
2023-03-30T07:39:14.839Z,16.99
2023-03-30T07:40:14.859Z,17.08
2023-03-30T07:41:14.863Z,17.10
2023-03-30T07:42:14.820Z,17.04
2023-03-30T07:43:14.799Z,17.06
2023-03-30T07:44:14.765Z,17.15
2023-03-30T07:45:16.496Z,16.99
2023-03-30T07:46:14.844Z,17.06
2023-03-30T07:47:14.776Z,17.13
2023-03-30T07:48:14.840Z,16.99
2023-03-30T07:49:14.732Z,17.03
2023-03-30T07:50:14.739Z,16.95
2023-03-30T07:51:14.693Z,16.86
2023-03-30T07:52:14.701Z,16.83
2023-03-30T07:53:14.671Z,16.95
2023-03-30T07:54:14.666Z,16.80
2023-03-30T07:55:14.681Z,16.83
2023-03-30T07:56:14.646Z,16.89
2023-03-30T07:57:14.728Z,16.88
2023-03-30T07:58:14.629Z,16.95
2023-03-30T07:59:14.617Z,16.95
2023-03-30T08:00:14.694Z,16.85
2023-03-30T08:01:14.592Z,16.90
2023-03-30T08:02:14.611Z,16.89
2023-03-30T08:03:14.798Z,16.85
2023-03-30T08:04:14.645Z,16.89
2023-03-30T08:05:14.736Z,16.85
2023-03-30T08:06:14.528Z,16.89
2023-03-30T08:07:14.529Z,16.93
2023-03-30T08:08:14.524Z,16.89
2023-03-30T08:09:14.485Z,16.88
2023-03-30T08:10:14.479Z,16.89
2023-03-30T08:11:14.467Z,16.81
2023-03-30T08:12:14.491Z,16.78
2023-03-30T08:13:14.466Z,16.78
2023-03-30T08:14:14.435Z,16.75
2023-03-30T08:15:14.416Z,16.75
2023-03-30T08:16:14.456Z,16.74
2023-03-30T08:17:14.403Z,16.70
2023-03-30T08:18:14.426Z,16.68
2023-03-30T08:19:14.410Z,16.62
2023-03-30T08:20:14.352Z,16.62
2023-03-30T08:21:14.363Z,16.65
2023-03-30T08:22:14.404Z,16.56
2023-03-30T08:23:14.335Z,16.62
2023-03-30T08:24:14.323Z,16.68
2023-03-30T08:25:14.325Z,16.80
2023-03-30T08:26:14.308Z,16.58
2023-03-30T08:27:14.315Z,16.60
2023-03-30T08:28:14.279Z,16.58
2023-03-30T08:29:14.258Z,16.65
2023-03-30T08:30:14.255Z,16.67
2023-03-30T08:31:14.271Z,16.60
2023-03-30T08:32:14.244Z,16.55
2023-03-30T08:33:14.231Z,16.62
2023-03-30T08:34:14.205Z,16.59
2023-03-30T08:35:14.250Z,16.70
2023-03-30T08:36:14.179Z,16.62
2023-03-30T08:37:14.178Z,16.68
2023-03-30T08:38:14.151Z,16.75
2023-03-30T08:39:14.159Z,16.88
2023-03-30T08:40:15.077Z,16.88
2023-03-30T08:41:14.137Z,17.15
2023-03-30T08:42:14.113Z,17.26
2023-03-30T08:43:14.112Z,17.41
2023-03-30T08:44:14.093Z,17.53
2023-03-30T08:45:14.094Z,17.51
2023-03-30T08:46:14.191Z,17.55
2023-03-30T08:47:14.074Z,17.69
2023-03-30T08:48:14.154Z,17.74
2023-03-30T08:49:14.052Z,17.79
2023-03-30T08:50:14.019Z,17.69
2023-03-30T08:51:14.046Z,17.63
2023-03-30T08:52:14.025Z,17.66
2023-03-30T08:53:13.984Z,17.64
2023-03-30T08:54:13.979Z,17.53
2023-03-30T08:55:13.975Z,17.46
2023-03-30T08:56:13.959Z,17.46
2023-03-30T08:57:14.071Z,17.35
2023-03-30T08:58:13.926Z,17.47
2023-03-30T08:59:13.970Z,17.33
2023-03-30T09:00:13.926Z,17.40
2023-03-30T09:01:13.933Z,17.44
2023-03-30T09:02:13.900Z,17.40
2023-03-30T09:03:13.987Z,17.41
2023-03-30T09:04:13.858Z,17.53
2023-03-30T09:05:13.945Z,17.66
2023-03-30T09:06:13.847Z,17.88
2023-03-30T09:07:13.916Z,18.31
2023-03-30T09:08:13.834Z,18.64
2023-03-30T09:09:13.818Z,18.99
2023-03-30T09:10:13.821Z,19.38
2023-03-30T09:11:13.813Z,19.53
2023-03-30T09:12:13.775Z,19.66
2023-03-30T09:13:13.789Z,19.65
2023-03-30T09:14:13.747Z,19.38
2023-03-30T09:15:13.762Z,19.20
2023-03-30T09:16:13.752Z,19.11
2023-03-30T09:17:13.759Z,18.97
2023-03-30T09:18:13.749Z,18.86
2023-03-30T09:19:13.698Z,18.70
2023-03-30T09:20:13.761Z,18.61
2023-03-30T09:21:13.691Z,18.37
2023-03-30T09:22:13.690Z,18.18
2023-03-30T09:23:13.785Z,18.04
2023-03-30T09:24:13.637Z,17.82
2023-03-30T09:25:13.641Z,17.69
2023-03-30T09:26:13.624Z,17.48
2023-03-30T09:27:13.661Z,17.46
2023-03-30T09:28:13.620Z,17.38
2023-03-30T09:29:13.689Z,17.29
2023-03-30T09:30:13.565Z,17.32
2023-03-30T09:31:13.697Z,17.23
2023-03-30T09:32:13.595Z,17.11
2023-03-30T09:33:13.596Z,16.99
2023-03-30T09:34:14.258Z,16.95
2023-03-30T09:35:13.528Z,16.96
2023-03-30T09:36:13.619Z,16.88
2023-03-30T09:37:13.517Z,16.71
2023-03-30T09:38:13.499Z,16.65
2023-03-30T09:39:13.506Z,16.56
2023-03-30T09:40:13.450Z,16.33
2023-03-30T09:41:13.478Z,16.20
2023-03-30T09:42:13.501Z,15.99
2023-03-30T09:43:13.436Z,15.96
2023-03-30T09:44:13.414Z,15.76
2023-03-30T09:45:13.532Z,15.48
2023-03-30T09:46:13.430Z,15.26
2023-03-30T09:47:13.423Z,14.90
2023-03-30T09:48:13.408Z,14.71
2023-03-30T09:49:13.396Z,14.37
2023-03-30T09:50:13.346Z,14.21
2023-03-30T09:51:13.335Z,13.98
2023-03-30T09:52:13.316Z,13.74
2023-03-30T09:53:13.324Z,13.49
2023-03-30T09:54:13.308Z,13.33
2023-03-30T09:55:13.366Z,13.17
2023-03-30T09:56:13.282Z,13.14
2023-03-30T09:57:13.286Z,12.95
2023-03-30T09:58:13.269Z,12.77
2023-03-30T09:59:13.257Z,12.74
2023-03-30T10:00:13.239Z,12.64
2023-03-30T10:01:13.299Z,12.49
2023-03-30T10:02:13.420Z,12.49
2023-03-30T10:03:13.539Z,12.41
2023-03-30T10:04:13.345Z,12.16
2023-03-30T10:05:13.190Z,12.12
2023-03-30T10:06:13.405Z,12.06
2023-03-30T10:07:18.837Z,11.99
2023-03-30T10:08:14.176Z,12.01
2023-03-30T10:09:13.130Z,11.94
2023-03-30T10:10:13.139Z,11.93
2023-03-30T10:11:13.155Z,11.83
2023-03-30T10:12:13.095Z,11.83
2023-03-30T10:13:13.106Z,11.85
2023-03-30T10:14:13.091Z,11.99
2023-03-30T10:15:13.088Z,12.06
2023-03-30T10:16:13.133Z,12.24
2023-03-30T10:17:13.042Z,12.52
2023-03-30T10:18:13.128Z,12.46
2023-03-30T10:19:13.025Z,12.78
2023-03-30T10:20:14.256Z,12.70
2023-03-30T10:21:13.005Z,12.75
2023-03-30T10:22:12.994Z,12.82
2023-03-30T10:23:12.976Z,13.07
2023-03-30T10:24:12.993Z,13.07
2023-03-30T10:25:12.974Z,13.09
2023-03-30T10:26:13.200Z,13.15
2023-03-30T10:27:12.965Z,13.17
2023-03-30T10:28:12.929Z,13.20
2023-03-30T10:29:12.907Z,13.21
2023-03-30T10:30:12.904Z,13.21
2023-03-30T10:31:12.949Z,13.24
2023-03-30T10:32:12.882Z,13.20
2023-03-30T10:33:12.879Z,13.22
2023-03-30T10:34:12.858Z,13.18
2023-03-30T10:35:12.852Z,13.17
2023-03-30T10:36:12.886Z,13.17
2023-03-30T10:37:12.837Z,13.15
2023-03-30T10:38:12.809Z,13.12
2023-03-30T10:39:12.809Z,13.00
2023-03-30T10:40:12.801Z,13.04
2023-03-30T10:41:12.803Z,13.07
2023-03-30T10:42:12.762Z,13.17
2023-03-30T10:43:12.821Z,13.18
2023-03-30T10:44:12.746Z,13.29
2023-03-30T10:45:12.732Z,13.38
2023-03-30T10:46:18.848Z,13.51
2023-03-30T10:47:13.797Z,13.84
2023-03-30T10:48:12.756Z,14.13
2023-03-30T10:49:12.688Z,14.28
2023-03-30T10:50:12.723Z,14.56
2023-03-30T10:51:12.789Z,14.87
2023-03-30T10:52:12.652Z,15.15
2023-03-30T10:53:12.708Z,15.27
2023-03-30T10:54:12.639Z,15.45
2023-03-30T10:55:12.613Z,15.63
2023-03-30T10:56:12.634Z,15.67
2023-03-30T10:57:12.917Z,15.84
2023-03-30T10:58:12.658Z,15.96
2023-03-30T10:59:12.586Z,16.20
2023-03-30T11:00:12.568Z,16.59
2023-03-30T11:01:12.626Z,16.74
2023-03-30T11:02:12.549Z,16.99
2023-03-30T11:03:12.701Z,17.17
2023-03-30T11:04:22.442Z,17.14
2023-03-30T11:05:13.549Z,17.03
2023-03-30T11:06:12.507Z,17.03
2023-03-30T11:07:12.494Z,16.99
2023-03-30T11:08:12.484Z,17.10
2023-03-30T11:09:12.464Z,17.11
2023-03-30T11:10:12.449Z,17.26
2023-03-30T11:11:12.437Z,17.46
2023-03-30T11:12:12.456Z,17.63
2023-03-30T11:13:12.426Z,17.66
2023-03-30T11:14:12.416Z,17.88
2023-03-30T11:15:12.442Z,17.99
2023-03-30T11:16:12.404Z,18.06
2023-03-30T11:17:12.453Z,18.04
2023-03-30T11:18:12.493Z,18.25
2023-03-30T11:19:12.411Z,18.31
2023-03-30T11:20:12.347Z,18.37
2023-03-30T11:21:12.345Z,18.44
2023-03-30T11:22:12.348Z,18.42
2023-03-30T11:23:12.323Z,18.31
2023-03-30T11:24:12.296Z,18.22
2023-03-30T11:25:12.324Z,18.17
2023-03-30T11:26:12.313Z,17.87
2023-03-30T11:27:12.304Z,17.94
2023-03-30T11:28:12.260Z,17.82
2023-03-30T11:29:12.224Z,17.64
2023-03-30T11:30:12.253Z,17.44
2023-03-30T11:31:12.225Z,17.14
2023-03-30T11:32:12.260Z,17.14
2023-03-30T11:33:12.294Z,17.03
2023-03-30T11:34:12.200Z,16.92
2023-03-30T11:35:12.171Z,16.83
2023-03-30T11:36:12.204Z,16.74
2023-03-30T11:37:12.158Z,16.70
2023-03-30T11:38:12.166Z,16.59
2023-03-30T11:39:25.043Z,16.52
2023-03-30T11:40:13.118Z,16.55
2023-03-30T11:41:12.118Z,16.63
2023-03-30T11:42:12.099Z,16.81
2023-03-30T11:43:12.089Z,16.98
2023-03-30T11:44:12.092Z,17.23
2023-03-30T11:45:12.063Z,17.41
2023-03-30T11:46:12.104Z,17.55
2023-03-30T11:47:12.093Z,17.79
2023-03-30T11:48:12.070Z,18.03
2023-03-30T11:49:13.427Z,18.25
2023-03-30T11:50:12.039Z,18.52
2023-03-30T11:51:12.001Z,18.50
2023-03-30T11:52:11.991Z,18.72
2023-03-30T11:53:11.984Z,18.84
2023-03-30T11:54:11.971Z,19.02
2023-03-30T11:55:11.964Z,19.17
2023-03-30T11:56:11.951Z,19.10
2023-03-30T11:57:11.996Z,18.99
2023-03-30T11:58:11.924Z,18.90
2023-03-30T11:59:11.948Z,18.84
2023-03-30T12:00:11.892Z,18.91
2023-03-30T12:01:11.892Z,19.02
2023-03-30T12:02:11.930Z,19.33
2023-03-30T12:03:11.966Z,19.51
2023-03-30T12:04:11.982Z,19.68
2023-03-30T12:05:11.886Z,19.47
2023-03-30T12:06:11.827Z,19.23
2023-03-30T12:07:11.840Z,19.11
2023-03-30T12:08:11.814Z,19.13
2023-03-30T12:09:11.809Z,19.23
2023-03-30T12:10:11.778Z,19.33
2023-03-30T12:11:11.934Z,19.38
2023-03-30T12:12:11.870Z,19.55
2023-03-30T12:13:11.740Z,19.68
2023-03-30T12:14:11.765Z,19.79
2023-03-30T12:15:11.749Z,19.78
2023-03-30T12:16:11.793Z,19.80
2023-03-30T12:17:11.703Z,19.72
2023-03-30T12:18:11.703Z,19.66
2023-03-30T12:19:11.733Z,19.63
2023-03-30T12:20:11.684Z,19.72
2023-03-30T12:21:11.696Z,19.63
2023-03-30T12:22:11.662Z,19.60
2023-03-30T12:23:11.642Z,19.57
2023-03-30T12:24:11.652Z,19.42
2023-03-30T12:25:11.643Z,19.35
2023-03-30T12:26:11.600Z,19.14
2023-03-30T12:27:11.986Z,19.10
2023-03-30T12:28:11.575Z,19.25
2023-03-30T12:29:36.085Z,19.35
2023-03-30T12:30:12.589Z,19.47
2023-03-30T12:31:11.593Z,19.54
2023-03-30T12:32:11.570Z,19.38
2023-03-30T12:33:11.578Z,19.14
2023-03-30T12:34:11.512Z,18.83
2023-03-30T12:35:11.583Z,18.73
2023-03-30T12:36:11.530Z,18.64
2023-03-30T12:37:11.483Z,18.55
2023-03-30T12:38:11.464Z,18.39
2023-03-30T12:39:11.464Z,18.31
2023-03-30T12:40:11.459Z,18.15
2023-03-30T12:41:11.440Z,18.17
2023-03-30T12:42:11.475Z,18.10
2023-03-30T12:43:11.424Z,18.06
2023-03-30T12:44:11.431Z,18.10
2023-03-30T12:45:11.400Z,17.99
2023-03-30T12:46:11.413Z,18.02
2023-03-30T12:47:12.307Z,17.99
2023-03-30T12:48:11.451Z,17.92
2023-03-30T12:49:11.365Z,17.94
2023-03-30T12:50:11.337Z,17.92
2023-03-30T12:51:12.013Z,18.13
2023-03-30T12:52:11.328Z,18.12